createdAt,value
2019-04-25T00:02:26.443Z,86.80
2019-04-25T00:04:56.262Z,85.50
2019-04-25T00:07:26.014Z,83.10
2019-04-25T00:09:56.301Z,84.00
2019-04-25T00:12:26.043Z,84.50
2019-04-25T00:14:57.330Z,81.20
2019-04-25T00:17:27.355Z,80.00
2019-04-25T00:19:58.086Z,81.80
2019-04-25T00:22:53.240Z,84.00
2019-04-25T00:25:49.176Z,84.30
2019-04-25T00:28:21.643Z,82.50
2019-04-25T00:30:52.261Z,84.70
2019-04-25T00:33:24.083Z,82.20
2019-04-25T00:35:53.738Z,79.70
2019-04-25T00:38:23.418Z,80.50
2019-04-25T00:40:53.582Z,79.80
2019-04-25T00:43:23.523Z,80.20
2019-04-25T00:45:53.187Z,82.50
2019-04-25T00:48:22.873Z,81.30
2019-04-25T00:50:54.533Z,83.30
2019-04-25T00:53:23.986Z,82.20
2019-04-25T00:55:53.891Z,83.20
2019-04-25T00:58:33.149Z,81.50
2019-04-25T01:01:24.989Z,81.20
2019-04-25T01:03:55.108Z,81.70
2019-04-25T01:06:24.827Z,80.10
2019-04-25T01:08:55.821Z,79.90
2019-04-25T01:11:25.947Z,80.00
2019-04-25T01:13:55.867Z,81.50
2019-04-25T01:16:25.704Z,80.10
2019-04-25T01:18:56.511Z,81.50
2019-04-25T01:21:26.308Z,79.40
2019-04-25T01:23:56.051Z,80.50
2019-04-25T01:26:25.747Z,79.00
2019-04-25T01:28:56.036Z,79.80
2019-04-25T01:31:27.762Z,80.50
2019-04-25T01:33:57.610Z,83.90
2019-04-25T01:36:44.378Z,85.50
2019-04-25T01:39:39.598Z,85.30
2019-04-25T01:42:27.118Z,85.80
2019-04-25T01:44:57.999Z,83.90
2019-04-25T01:47:28.763Z,85.50
2019-04-25T01:49:58.510Z,84.50
2019-04-25T01:52:28.298Z,83.20
2019-04-25T01:54:58.868Z,84.00
2019-04-25T01:57:29.674Z,82.90
2019-04-25T01:59:59.351Z,81.90
2019-04-25T02:02:30.498Z,81.00
2019-04-25T02:05:00.284Z,81.70
2019-04-25T02:07:30.291Z,80.50
2019-04-25T02:09:59.965Z,82.10
2019-04-25T02:12:55.205Z,81.00
2019-04-25T02:15:27.631Z,80.30
2019-04-25T02:17:59.103Z,81.50
2019-04-25T02:20:28.898Z,82.00
2019-04-25T02:22:58.754Z,81.60
2019-04-25T02:25:28.427Z,82.40
2019-04-25T02:28:01.126Z,81.10
2019-04-25T02:30:29.787Z,81.90
2019-04-25T02:33:02.754Z,82.00
2019-04-25T02:35:30.882Z,81.60
2019-04-25T02:38:02.440Z,81.00
2019-04-25T02:40:33.786Z,85.00
2019-04-25T02:43:07.919Z,84.40
2019-04-25T02:45:55.474Z,83.60
2019-04-25T02:48:46.336Z,82.30
2019-04-25T02:51:24.354Z,83.80
2019-04-25T02:53:55.933Z,83.60
2019-04-25T02:56:33.565Z,82.90
2019-04-25T02:58:58.501Z,81.50
2019-04-25T03:01:28.427Z,81.40
2019-04-25T03:03:59.336Z,79.60
2019-04-25T03:06:29.646Z,82.10
2019-04-25T03:09:00.297Z,82.30
2019-04-25T03:11:34.562Z,80.50
2019-04-25T03:14:06.581Z,78.30
2019-04-25T03:16:35.819Z,79.60
2019-04-25T03:19:26.363Z,81.10
2019-04-25T03:22:00.164Z,79.60
2019-04-25T03:24:30.583Z,82.60
2019-04-25T03:27:00.843Z,80.60
2019-04-25T03:29:31.832Z,79.00
2019-04-25T03:32:02.699Z,80.60
2019-04-25T03:34:35.112Z,79.40
2019-04-25T03:37:05.582Z,80.50
2019-04-25T03:39:35.751Z,79.20
2019-04-25T03:42:06.239Z,78.20
2019-04-25T03:44:36.034Z,77.70
2019-04-25T03:47:07.488Z,78.00
2019-04-25T03:49:37.147Z,79.30
2019-04-25T03:52:06.875Z,78.80
2019-04-25T03:54:36.619Z,78.10
2019-04-25T03:57:07.349Z,77.20
2019-04-25T03:59:37.250Z,76.70
2019-04-25T04:02:07.974Z,78.30
2019-04-25T04:04:39.483Z,77.40
2019-04-25T04:07:10.792Z,76.80
2019-04-25T04:09:40.550Z,77.20
2019-04-25T04:12:10.227Z,76.80
2019-04-25T04:14:39.899Z,76.50
2019-04-25T04:17:28.799Z,76.50
2019-04-25T04:20:16.239Z,76.70
2019-04-25T04:22:53.290Z,78.10
2019-04-25T04:25:23.650Z,77.20
2019-04-25T04:27:53.843Z,77.10
2019-04-25T04:30:24.194Z,77.70
2019-04-25T04:32:53.923Z,77.60
2019-04-25T04:35:23.661Z,77.20
2019-04-25T04:37:54.176Z,77.70
2019-04-25T04:40:24.382Z,77.60
2019-04-25T04:42:54.243Z,77.30
2019-04-25T04:45:23.986Z,76.30
2019-04-25T04:47:53.835Z,75.00
2019-04-25T04:50:25.228Z,76.90
2019-04-25T04:52:54.883Z,77.20
2019-04-25T04:55:24.550Z,78.00
2019-04-25T04:57:54.347Z,75.80
2019-04-25T05:00:25.523Z,77.80
2019-04-25T05:03:01.789Z,78.90
2019-04-25T05:05:43.911Z,77.70
2019-04-25T05:08:25.708Z,78.70
2019-04-25T05:10:57.338Z,77.90
2019-04-25T05:13:26.749Z,75.50
2019-04-25T05:15:56.747Z,75.50
2019-04-25T05:18:37.486Z,75.50
2019-04-25T05:20:57.790Z,74.40
2019-04-25T05:23:27.530Z,73.80
2019-04-25T05:25:57.219Z,72.90
2019-04-25T05:28:26.878Z,72.50
2019-04-25T05:31:27.767Z,71.10
2019-04-25T05:33:57.440Z,71.70
2019-04-25T05:36:37.456Z,71.50
2019-04-25T05:39:09.447Z,70.70
2019-04-25T05:42:04.278Z,71.00
2019-04-25T05:44:34.971Z,70.10
2019-04-25T05:47:05.571Z,69.90
2019-04-25T05:49:35.305Z,70.10
2019-04-25T05:52:05.202Z,70.60
2019-04-25T05:54:34.911Z,71.10
2019-04-25T05:57:04.743Z,69.40
2019-04-25T05:59:35.495Z,69.20
2019-04-25T06:02:05.354Z,68.70
2019-04-25T06:04:35.179Z,68.70
2019-04-25T06:07:05.689Z,68.90
2019-04-25T06:09:54.740Z,69.30
2019-04-25T06:12:56.050Z,71.00
2019-04-25T06:15:28.516Z,70.10
2019-04-25T06:18:11.537Z,69.70
2019-04-25T06:20:41.199Z,69.60
2019-04-25T06:23:35.842Z,71.50
2019-04-25T06:26:19.201Z,70.90
2019-04-25T06:28:48.977Z,69.40
2019-04-25T06:31:10.223Z,68.80
2019-04-25T06:33:40.105Z,67.20
2019-04-25T06:36:10.365Z,66.70
2019-04-25T06:38:40.100Z,67.60
2019-04-25T06:41:09.774Z,66.40
2019-04-25T06:43:41.223Z,66.20
2019-04-25T06:46:17.363Z,66.00
2019-04-25T06:48:51.118Z,66.60
2019-04-25T06:51:22.515Z,65.40
2019-04-25T06:53:53.453Z,64.40
2019-04-25T06:56:24.966Z,62.90
2019-04-25T06:58:55.089Z,62.80
2019-04-25T07:01:26.183Z,62.80
2019-04-25T07:03:56.393Z,63.20
2019-04-25T07:06:27.143Z,62.50
2019-04-25T07:08:56.859Z,61.50
2019-04-25T07:11:26.990Z,61.70
2019-04-25T07:13:56.779Z,61.50
2019-04-25T07:16:27.253Z,59.90
2019-04-25T07:18:57.140Z,59.80
2019-04-25T07:21:26.891Z,59.20
2019-04-25T07:23:56.653Z,58.80
2019-04-25T07:26:53.733Z,57.70
2019-04-25T07:29:37.935Z,57.30
2019-04-25T07:32:14.842Z,57.10
2019-04-25T07:34:44.922Z,56.60
2019-04-25T07:37:14.672Z,56.20
2019-04-25T07:39:44.487Z,55.30
2019-04-25T07:42:14.241Z,55.90
2019-04-25T07:44:50.606Z,54.80
2019-04-25T07:47:16.277Z,54.10
2019-04-25T07:49:45.926Z,52.70
2019-04-25T07:52:15.614Z,51.60
2019-04-25T07:54:45.275Z,51.20
2019-04-25T07:57:15.084Z,50.60
2019-04-25T07:59:44.830Z,50.20
2019-04-25T08:02:14.579Z,49.20
2019-04-25T08:04:44.393Z,49.10
2019-04-25T08:07:14.345Z,49.10
2019-04-25T08:09:44.372Z,48.70
2019-04-25T08:12:14.218Z,47.50
2019-04-25T08:14:58.934Z,48.60
2019-04-25T08:17:46.446Z,48.60
2019-04-25T08:20:26.671Z,48.50
2019-04-25T08:22:58.989Z,49.00
2019-04-25T08:25:39.223Z,50.00
2019-04-25T08:28:08.395Z,49.40
2019-04-25T08:30:38.264Z,48.60
2019-04-25T08:33:08.147Z,48.40
2019-04-25T08:35:38.218Z,48.60
2019-04-25T08:38:08.115Z,47.90
2019-04-25T08:40:38.967Z,48.30
2019-04-25T08:43:08.959Z,48.70
2019-04-25T08:45:39.706Z,48.40
2019-04-25T08:48:09.684Z,47.00
2019-04-25T08:50:49.658Z,47.50
2019-04-25T08:53:19.347Z,47.00
2019-04-25T08:56:03.869Z,45.80
2019-04-25T08:58:43.648Z,44.80
2019-04-25T09:01:32.431Z,44.20
2019-04-25T09:04:31.672Z,44.50
2019-04-25T09:07:05.711Z,44.50
2019-04-25T09:09:36.613Z,44.20
2019-04-25T09:12:06.836Z,43.70
2019-04-25T09:14:37.567Z,44.30
2019-04-25T09:17:07.580Z,44.60
2019-04-25T09:19:38.381Z,45.20
2019-04-25T09:22:08.374Z,45.50
2019-04-25T09:24:38.933Z,45.80
2019-04-25T09:27:09.036Z,45.90
2019-04-25T09:29:38.986Z,46.40
2019-04-25T09:32:08.664Z,46.50
2019-04-25T09:34:38.331Z,47.10
2019-04-25T09:37:08.084Z,47.50
2019-04-25T09:39:46.110Z,48.50
2019-04-25T09:42:15.783Z,47.80
2019-04-25T09:45:03.895Z,48.10
2019-04-25T09:47:35.727Z,48.00
2019-04-25T09:50:08.791Z,48.60
2019-04-25T09:52:38.468Z,48.80
2019-04-25T09:55:24.191Z,49.60
2019-04-25T09:58:15.224Z,49.70
2019-04-25T10:00:48.067Z,49.40
2019-04-25T10:03:17.962Z,49.20
2019-04-25T10:05:47.787Z,49.10
2019-04-25T10:08:17.795Z,48.50
2019-04-25T10:10:47.735Z,48.60
2019-04-25T10:13:17.471Z,48.80
2019-04-25T10:16:03.988Z,49.10
2019-04-25T10:18:34.562Z,49.10
2019-04-25T10:21:07.755Z,49.40
2019-04-25T10:23:38.253Z,50.10
2019-04-25T10:26:09.771Z,50.00
2019-04-25T10:28:41.642Z,50.00
2019-04-25T10:31:13.624Z,50.90
2019-04-25T10:33:45.835Z,50.90
2019-04-25T10:36:16.451Z,50.50
2019-04-25T10:39:01.106Z,50.60
2019-04-25T10:41:18.302Z,50.60
2019-04-25T10:43:50.473Z,50.70
2019-04-25T10:46:21.797Z,50.60
2019-04-25T10:48:54.047Z,50.90
2019-04-25T10:51:24.004Z,50.70
2019-04-25T10:53:55.030Z,50.40
2019-04-25T10:56:25.124Z,50.10
2019-04-25T10:58:55.168Z,49.80
2019-04-25T11:01:24.948Z,50.10
2019-04-25T11:04:08.855Z,49.30
2019-04-25T11:06:38.778Z,49.20
2019-04-25T11:09:13.766Z,48.80
2019-04-25T11:11:43.727Z,48.50
2019-04-25T11:14:14.027Z,47.70
2019-04-25T11:16:45.578Z,47.40
2019-04-25T11:19:15.448Z,45.50
2019-04-25T11:21:45.676Z,45.20
2019-04-25T11:24:16.311Z,44.60
2019-04-25T11:26:49.920Z,45.00
2019-04-25T11:29:18.478Z,44.30
2019-04-25T11:31:49.541Z,44.20
2019-04-25T11:34:19.667Z,44.10
2019-04-25T11:36:50.742Z,43.10
2019-04-25T11:39:42.611Z,43.10
2019-04-25T11:42:16.575Z,43.60
2019-04-25T11:44:46.425Z,43.60
2019-04-25T11:47:16.166Z,42.80
2019-04-25T11:49:47.799Z,43.30
2019-04-25T11:52:27.590Z,44.10
2019-04-25T11:54:50.281Z,43.30
2019-04-25T11:57:19.939Z,43.80
2019-04-25T11:59:50.610Z,44.90
2019-04-25T12:02:23.869Z,44.70
2019-04-25T12:04:55.003Z,44.90
2019-04-25T12:07:26.614Z,44.50
2019-04-25T12:09:56.342Z,44.20
2019-04-25T12:12:26.046Z,44.80
2019-04-25T12:14:55.915Z,44.00
2019-04-25T12:17:25.664Z,43.50
2019-04-25T12:19:56.228Z,43.40
2019-04-25T12:22:26.530Z,43.20
2019-04-25T12:24:56.197Z,43.40
2019-04-25T12:27:26.059Z,43.00
2019-04-25T12:29:55.799Z,42.60
2019-04-25T12:32:26.543Z,42.70
2019-04-25T12:34:56.325Z,43.00
2019-04-25T12:37:26.075Z,41.80
2019-04-25T12:39:55.966Z,42.20
2019-04-25T12:42:25.895Z,42.40
2019-04-25T12:45:14.627Z,42.40
2019-04-25T12:47:47.380Z,42.00
2019-04-25T12:50:18.805Z,41.40
2019-04-25T12:52:48.730Z,41.60
2019-04-25T12:55:19.102Z,41.60
2019-04-25T12:57:49.465Z,42.00
2019-04-25T13:00:24.322Z,42.00
2019-04-25T13:02:54.867Z,41.60
2019-04-25T13:05:24.680Z,41.40
2019-04-25T13:07:57.404Z,40.80
2019-04-25T13:10:25.915Z,41.20
2019-04-25T13:12:55.591Z,40.30
2019-04-25T13:15:27.066Z,40.00
2019-04-25T13:17:57.247Z,40.90
2019-04-25T13:20:27.003Z,41.20
2019-04-25T13:22:56.709Z,40.70
2019-04-25T13:25:26.507Z,40.40
2019-04-25T13:28:08.421Z,40.40
2019-04-25T13:31:12.161Z,40.30
2019-04-25T13:34:15.775Z,40.40
2019-04-25T13:36:45.610Z,40.00
2019-04-25T13:39:19.838Z,40.50
2019-04-25T13:41:49.549Z,40.20
2019-04-25T13:44:19.291Z,40.10
2019-04-25T13:46:48.993Z,39.90
2019-04-25T13:49:19.461Z,40.70
2019-04-25T13:51:50.170Z,40.00
2019-04-25T13:54:20.897Z,40.30
2019-04-25T13:56:53.279Z,40.30
2019-04-25T13:59:23.478Z,40.40
2019-04-25T14:01:57.536Z,40.20
2019-04-25T14:04:29.380Z,39.50
2019-04-25T14:06:59.391Z,39.40
2019-04-25T14:09:29.519Z,39.40
2019-04-25T14:11:59.455Z,39.60
2019-04-25T14:14:30.159Z,40.10
2019-04-25T14:17:11.714Z,39.60
2019-04-25T14:20:02.076Z,39.30
2019-04-25T14:22:33.407Z,38.30
2019-04-25T14:25:04.025Z,38.50
2019-04-25T14:27:34.146Z,39.30
2019-04-25T14:30:06.623Z,38.00
2019-04-25T14:32:36.564Z,38.20
2019-04-25T14:35:08.339Z,38.90
2019-04-25T14:37:39.686Z,38.80
2019-04-25T14:40:10.306Z,38.20
2019-04-25T14:42:40.135Z,38.20
2019-04-25T14:45:10.403Z,38.70
2019-04-25T14:47:40.135Z,38.30
2019-04-25T14:50:10.163Z,39.10
2019-04-25T14:52:40.829Z,38.60
2019-04-25T14:55:25.606Z,38.60
2019-04-25T14:57:56.260Z,37.90
2019-04-25T15:00:36.799Z,38.40
2019-04-25T15:03:06.830Z,38.80
2019-04-25T15:05:37.351Z,38.40
2019-04-25T15:08:07.602Z,39.20
2019-04-25T15:10:37.447Z,38.70
2019-04-25T15:13:08.791Z,38.50
2019-04-25T15:15:38.652Z,38.90
2019-04-25T15:18:08.351Z,39.80
2019-04-25T15:20:38.110Z,38.90
2019-04-25T15:23:09.031Z,38.50
2019-04-25T15:29:02.482Z,39.50
2019-04-25T15:31:32.144Z,39.00
2019-04-25T15:34:02.461Z,38.70
2019-04-25T15:36:56.303Z,39.00
2019-04-25T15:39:44.387Z,38.80
2019-04-25T15:42:34.030Z,39.10
2019-04-25T15:45:29.355Z,39.40
2019-04-25T15:48:18.235Z,39.00
2019-04-25T15:50:48.094Z,38.80
2019-04-25T15:53:17.834Z,39.00
2019-04-25T15:55:47.803Z,39.10
2019-04-25T15:58:17.460Z,39.70
2019-04-25T16:00:47.211Z,38.80
2019-04-25T16:03:17.247Z,38.70
2019-04-25T16:05:47.059Z,38.80
2019-04-25T16:08:16.857Z,38.90
2019-04-25T16:10:46.538Z,38.90
2019-04-25T16:13:16.231Z,39.50
2019-04-25T16:15:46.075Z,39.40
2019-04-25T16:18:16.123Z,38.50
2019-04-25T16:20:45.946Z,39.90
2019-04-25T16:23:15.615Z,38.50
2019-04-25T16:25:45.305Z,39.00
2019-04-25T16:28:15.140Z,39.10
2019-04-25T16:30:45.167Z,39.30
2019-04-25T16:33:14.906Z,39.10
2019-04-25T16:35:44.735Z,39.30
2019-04-25T16:38:14.807Z,39.60
2019-04-25T16:40:44.587Z,39.90
2019-04-25T16:43:17.556Z,40.50
2019-04-25T16:45:47.564Z,41.10
2019-04-25T16:48:17.750Z,41.20
2019-04-25T16:50:47.502Z,41.30
2019-04-25T16:53:17.246Z,41.90
2019-04-25T16:55:46.965Z,42.30
2019-04-25T16:58:16.870Z,42.40
2019-04-25T17:00:51.775Z,42.50
2019-04-25T17:03:22.974Z,42.70
2019-04-25T17:05:52.903Z,43.40
2019-04-25T17:08:23.416Z,43.40
2019-04-25T17:10:53.220Z,43.00
2019-04-25T17:13:24.127Z,43.10
2019-04-25T17:16:23.482Z,43.10
2019-04-25T17:18:57.074Z,43.10
2019-04-25T17:21:27.043Z,43.30
2019-04-25T17:23:57.146Z,43.90
2019-04-25T17:26:27.256Z,44.60
2019-04-25T17:28:59.434Z,44.30
2019-04-25T17:32:00.570Z,44.10
2019-04-25T17:34:43.910Z,45.80
2019-04-25T17:37:31.013Z,46.20
2019-04-25T17:40:06.592Z,46.50
2019-04-25T17:42:36.773Z,47.20
2019-04-25T17:45:09.487Z,48.30
2019-04-25T17:47:39.154Z,48.80
2019-04-25T17:50:08.982Z,49.00
2019-04-25T17:52:38.744Z,48.50
2019-04-25T17:55:08.591Z,48.10
2019-04-25T17:57:38.338Z,48.90
2019-04-25T18:00:11.330Z,49.00
2019-04-25T18:02:41.425Z,48.50
2019-04-25T18:05:12.446Z,49.50
2019-04-25T18:07:42.154Z,49.00
2019-04-25T18:10:12.839Z,47.90
2019-04-25T18:12:42.538Z,47.40
2019-04-25T18:15:14.309Z,47.70
2019-04-25T18:17:44.510Z,47.70
2019-04-25T18:20:18.928Z,46.70
2019-04-25T18:23:11.019Z,46.80
2019-04-25T18:25:58.094Z,47.20
2019-04-25T18:28:35.516Z,47.80
2019-04-25T18:31:06.551Z,48.60
2019-04-25T18:33:37.251Z,49.20
2019-04-25T18:36:32.552Z,49.90
2019-04-25T18:39:19.488Z,49.60
2019-04-25T18:41:54.891Z,49.30
2019-04-25T18:44:24.618Z,49.50
2019-04-25T18:46:54.459Z,49.60
2019-04-25T18:49:24.153Z,49.50
2019-04-25T18:51:58.130Z,49.50
2019-04-25T18:54:43.383Z,49.80
2019-04-25T18:57:28.991Z,50.70
2019-04-25T19:00:16.785Z,50.90
2019-04-25T19:02:56.410Z,50.90
2019-04-25T19:05:45.175Z,50.50
2019-04-25T19:08:14.907Z,51.00
2019-04-25T19:10:45.097Z,51.10
2019-04-25T19:13:16.239Z,51.30
2019-04-25T19:15:45.988Z,51.40
2019-04-25T19:18:16.230Z,51.60
2019-04-25T19:20:46.333Z,51.20
2019-04-25T19:23:16.004Z,51.40
2019-04-25T19:25:45.907Z,51.20
2019-04-25T19:28:15.896Z,51.20
2019-04-25T19:30:45.783Z,51.90
2019-04-25T19:33:15.594Z,51.40
2019-04-25T19:35:45.734Z,51.50
2019-04-25T19:38:15.671Z,51.30
2019-04-25T19:40:53.411Z,50.90
2019-04-25T19:43:30.451Z,51.50
2019-04-25T19:46:00.205Z,51.30
2019-04-25T19:48:30.099Z,51.40
2019-04-25T19:50:59.787Z,51.70
2019-04-25T19:53:29.455Z,51.70
2019-04-25T19:55:59.214Z,51.80
2019-04-25T19:58:28.887Z,51.60
2019-04-25T20:00:58.581Z,51.40
2019-04-25T20:03:58.560Z,52.30
2019-04-25T20:06:45.539Z,51.70
2019-04-25T20:09:34.275Z,51.80
2019-04-25T20:12:04.399Z,51.80
2019-04-25T20:14:34.074Z,51.30
2019-04-25T20:17:04.956Z,51.20
2019-04-25T20:19:34.699Z,50.60
2019-04-25T20:22:04.714Z,51.20
2019-04-25T20:24:34.807Z,50.40
2019-04-25T20:27:05.557Z,50.50
2019-04-25T20:29:35.218Z,51.20
2019-04-25T20:32:07.152Z,51.80
2019-04-25T20:34:36.659Z,51.80
2019-04-25T20:37:06.427Z,51.80
2019-04-25T20:39:36.094Z,51.80
2019-04-25T20:42:06.147Z,51.40
2019-04-25T20:44:36.676Z,51.90
2019-04-25T20:47:06.802Z,52.70
2019-04-25T20:49:36.551Z,52.70
2019-04-25T20:52:07.671Z,52.90
2019-04-25T20:54:37.351Z,53.40
2019-04-25T20:57:07.037Z,54.00
2019-04-25T20:59:36.791Z,54.40
2019-04-25T21:02:07.552Z,54.40
2019-04-25T21:04:40.457Z,55.20
2019-04-25T21:07:10.755Z,55.50
2019-04-25T21:09:41.451Z,55.50
2019-04-25T21:12:11.216Z,55.70
2019-04-25T21:15:01.818Z,55.60
2019-04-25T21:17:35.755Z,56.10
2019-04-25T21:20:06.475Z,56.10
2019-04-25T21:22:36.279Z,56.20
2019-04-25T21:25:06.602Z,57.40
2019-04-25T21:27:36.414Z,57.80
2019-04-25T21:30:06.996Z,57.30
2019-04-25T21:32:53.091Z,58.10
2019-04-25T21:35:24.485Z,58.30
2019-04-25T21:37:55.240Z,58.10
2019-04-25T21:40:42.947Z,58.40
2019-04-25T21:43:17.282Z,58.00
2019-04-25T21:45:47.243Z,57.80
2019-04-25T21:48:17.310Z,57.40
2019-04-25T21:50:47.552Z,57.70
2019-04-25T21:53:17.220Z,57.50
2019-04-25T21:55:47.347Z,57.50
2019-04-25T21:58:17.590Z,57.20
2019-04-25T22:01:10.774Z,57.50
2019-04-25T22:03:42.231Z,57.30
2019-04-25T22:06:12.188Z,57.60
2019-04-25T22:08:41.894Z,57.90
2019-04-25T22:11:11.807Z,58.80
2019-04-25T22:13:41.923Z,60.60
2019-04-25T22:16:12.648Z,62.60
2019-04-25T22:18:42.767Z,64.40
2019-04-25T22:21:12.991Z,64.60
2019-04-25T22:23:43.195Z,64.50
2019-04-25T22:26:13.039Z,65.10
2019-04-25T22:28:43.367Z,65.60
2019-04-25T22:31:18.142Z,66.30
2019-04-25T22:34:00.303Z,66.80
2019-04-25T22:36:31.641Z,66.10
2019-04-25T22:39:11.571Z,65.80
2019-04-25T22:41:47.010Z,67.40
2019-04-25T22:44:18.808Z,67.40
2019-04-25T22:46:48.827Z,67.20
2019-04-25T22:49:18.495Z,67.30
2019-04-25T22:51:48.246Z,66.80
2019-04-25T22:54:18.549Z,67.80
2019-04-25T22:56:48.290Z,68.90
2019-04-25T22:59:18.338Z,70.50
2019-04-25T23:02:10.103Z,69.50
2019-04-25T23:04:48.851Z,69.00
2019-04-25T23:07:18.771Z,68.90
2019-04-25T23:09:50.394Z,70.30
2019-04-25T23:12:20.351Z,70.50
2019-04-25T23:14:50.035Z,70.90
2019-04-25T23:17:19.715Z,71.80
2019-04-25T23:19:49.763Z,72.50
2019-04-25T23:22:19.444Z,72.60
2019-04-25T23:24:57.631Z,72.30
2019-04-25T23:27:42.900Z,71.20
2019-04-25T23:30:14.810Z,71.80
2019-04-25T23:32:44.556Z,71.80
2019-04-25T23:35:28.077Z,71.60
2019-04-25T23:37:46.651Z,71.90
2019-04-25T23:40:16.458Z,70.00
2019-04-25T23:42:46.143Z,69.90
2019-04-25T23:45:16.971Z,71.10
2019-04-25T23:47:46.654Z,72.70
2019-04-25T23:50:16.866Z,72.00
2019-04-25T23:52:46.797Z,71.70
2019-04-25T23:55:17.258Z,71.70
2019-04-25T23:57:47.095Z,72.50
